sensor_id;sensor_type;location;lat;lon;timestamp;pressure;altitude;pressure_sealevel;temperature;humidity
56719;BME280;42597;40.636;0.278;2023-04-27T00:00:51;97347.22;;;16.60;100.00
56719;BME280;42597;40.636;0.278;2023-04-27T00:03:17;97348.16;;;16.78;100.00
56719;BME280;42597;40.636;0.278;2023-04-27T00:05:42;97340.81;;;16.89;100.00
56719;BME280;42597;40.636;0.278;2023-04-27T00:08:08;97344.47;;;17.22;100.00
56719;BME280;42597;40.636;0.278;2023-04-27T00:10:34;97358.75;;;17.99;95.69
56719;BME280;42597;40.636;0.278;2023-04-27T00:13:00;97353.28;;;18.24;92.88
56719;BME280;42597;40.636;0.278;2023-04-27T00:15:27;97352.50;;;18.73;88.55
56719;BME280;42597;40.636;0.278;2023-04-27T00:17:53;97357.56;;;18.75;88.43
56719;BME280;42597;40.636;0.278;2023-04-27T00:20:19;97363.06;;;18.21;92.07
56719;BME280;42597;40.636;0.278;2023-04-27T00:22:45;97360.72;;;18.73;88.94
56719;BME280;42597;40.636;0.278;2023-04-27T00:25:11;97356.41;;;18.58;89.79
56719;BME280;42597;40.636;0.278;2023-04-27T00:27:37;97353.25;;;18.56;89.80
56719;BME280;42597;40.636;0.278;2023-04-27T00:30:03;97347.59;;;19.38;83.55
56719;BME280;42597;40.636;0.278;2023-04-27T00:32:29;97345.84;;;19.77;80.27
56719;BME280;42597;40.636;0.278;2023-04-27T00:34:55;97344.09;;;20.04;77.75
56719;BME280;42597;40.636;0.278;2023-04-27T00:37:20;97347.16;;;20.10;77.17
56719;BME280;42597;40.636;0.278;2023-04-27T00:39:46;97343.25;;;20.11;76.72
56719;BME280;42597;40.636;0.278;2023-04-27T00:42:12;97338.66;;;20.42;74.54
56719;BME280;42597;40.636;0.278;2023-04-27T00:44:41;97347.25;;;20.48;73.56
56719;BME280;42597;40.636;0.278;2023-04-27T00:47:08;97350.09;;;20.82;72.01
56719;BME280;42597;40.636;0.278;2023-04-27T00:49:35;97342.59;;;20.86;71.61
56719;BME280;42597;40.636;0.278;2023-04-27T00:52:01;97342.50;;;20.93;71.29
56719;BME280;42597;40.636;0.278;2023-04-27T00:54:27;97348.72;;;21.01;70.51
56719;BME280;42597;40.636;0.278;2023-04-27T00:56:53;97331.81;;;21.02;70.38
56719;BME280;42597;40.636;0.278;2023-04-27T00:59:19;97345.72;;;20.88;70.76
56719;BME280;42597;40.636;0.278;2023-04-27T01:01:45;97338.72;;;20.83;71.07
56719;BME280;42597;40.636;0.278;2023-04-27T01:04:11;97332.28;;;20.97;70.35
56719;BME280;42597;40.636;0.278;2023-04-27T01:06:36;97331.75;;;20.72;70.74
56719;BME280;42597;40.636;0.278;2023-04-27T01:09:04;97338.50;;;20.18;73.90
56719;BME280;42597;40.636;0.278;2023-04-27T01:11:29;97330.69;;;20.13;74.13
56719;BME280;42597;40.636;0.278;2023-04-27T01:13:55;97331.13;;;20.08;74.75
56719;BME280;42597;40.636;0.278;2023-04-27T01:16:21;97329.47;;;20.66;72.09
56719;BME280;42597;40.636;0.278;2023-04-27T01:18:47;97334.00;;;20.84;70.84
56719;BME280;42597;40.636;0.278;2023-04-27T01:21:12;97324.41;;;20.61;71.11
56719;BME280;42597;40.636;0.278;2023-04-27T01:23:38;97323.41;;;20.41;71.61
56719;BME280;42597;40.636;0.278;2023-04-27T01:26:03;97323.69;;;20.05;73.21
56719;BME280;42597;40.636;0.278;2023-04-27T01:28:29;97319.75;;;20.58;71.50
56719;BME280;42597;40.636;0.278;2023-04-27T01:30:55;97313.03;;;20.97;69.73
56719;BME280;42597;40.636;0.278;2023-04-27T01:33:21;97314.06;;;21.10;68.62
56719;BME280;42597;40.636;0.278;2023-04-27T01:35:46;97314.44;;;21.12;68.22
56719;BME280;42597;40.636;0.278;2023-04-27T01:38:12;97319.13;;;21.15;67.73
56719;BME280;42597;40.636;0.278;2023-04-27T01:40:37;97314.34;;;21.19;67.28
56719;BME280;42597;40.636;0.278;2023-04-27T01:43:03;97311.22;;;21.17;67.05
56719;BME280;42597;40.636;0.278;2023-04-27T01:45:29;97311.22;;;21.17;66.66
56719;BME280;42597;40.636;0.278;2023-04-27T01:47:54;97313.63;;;21.15;66.56
56719;BME280;42597;40.636;0.278;2023-04-27T01:50:20;97305.25;;;21.23;65.71
56719;BME280;42597;40.636;0.278;2023-04-27T01:52:46;97310.03;;;21.18;65.60
56719;BME280;42597;40.636;0.278;2023-04-27T01:55:12;97300.78;;;21.05;65.89
56719;BME280;42597;40.636;0.278;2023-04-27T01:57:37;97294.94;;;21.03;65.88
56719;BME280;42597;40.636;0.278;2023-04-27T02:00:03;97288.28;;;21.01;65.66
56719;BME280;42597;40.636;0.278;2023-04-27T02:02:30;97286.69;;;21.03;65.18
56719;BME280;42597;40.636;0.278;2023-04-27T02:04:55;97292.19;;;21.03;65.16
56719;BME280;42597;40.636;0.278;2023-04-27T02:07:21;97288.59;;;21.06;64.76
56719;BME280;42597;40.636;0.278;2023-04-27T02:09:47;97283.53;;;21.05;64.53
56719;BME280;42597;40.636;0.278;2023-04-27T02:12:13;97280.34;;;21.06;64.35
56719;BME280;42597;40.636;0.278;2023-04-27T02:14:39;97285.94;;;20.99;64.45
56719;BME280;42597;40.636;0.278;2023-04-27T02:17:05;97282.13;;;20.89;64.35
56719;BME280;42597;40.636;0.278;2023-04-27T02:19:31;97287.59;;;20.93;64.26
56719;BME280;42597;40.636;0.278;2023-04-27T02:21:56;97288.22;;;21.04;63.48
56719;BME280;42597;40.636;0.278;2023-04-27T02:24:22;97282.75;;;21.04;63.25
56719;BME280;42597;40.636;0.278;2023-04-27T02:26:48;97285.94;;;20.99;63.11
56719;BME280;42597;40.636;0.278;2023-04-27T02:29:13;97279.75;;;20.91;63.57
56719;BME280;42597;40.636;0.278;2023-04-27T02:31:39;97285.22;;;20.95;63.29
56719;BME280;42597;40.636;0.278;2023-04-27T02:34:05;97290.25;;;21.00;62.76
56719;BME280;42597;40.636;0.278;2023-04-27T02:36:31;97292.25;;;20.96;62.63
56719;BME280;42597;40.636;0.278;2023-04-27T02:38:56;97284.28;;;20.30;62.65
56719;BME280;42597;40.636;0.278;2023-04-27T02:41:22;97286.09;;;18.16;72.05
56719;BME280;42597;40.636;0.278;2023-04-27T02:43:50;97281.91;;;19.17;71.56
56719;BME280;42597;40.636;0.278;2023-04-27T02:46:15;97281.09;;;20.38;66.10
56719;BME280;42597;40.636;0.278;2023-04-27T02:48:41;97272.09;;;20.76;63.65
56719;BME280;42597;40.636;0.278;2023-04-27T02:51:07;97271.72;;;20.32;64.52
56719;BME280;42597;40.636;0.278;2023-04-27T02:53:32;97275.44;;;19.56;66.17
56719;BME280;42597;40.636;0.278;2023-04-27T02:55:58;97269.97;;;19.56;67.47
56719;BME280;42597;40.636;0.278;2023-04-27T02:58:24;97260.84;;;20.21;65.84
56719;BME280;42597;40.636;0.278;2023-04-27T03:00:56;97261.25;;;20.20;65.17
56719;BME280;42597;40.636;0.278;2023-04-27T03:03:23;97259.88;;;19.42;65.89
56719;BME280;42597;40.636;0.278;2023-04-27T03:05:49;97270.94;;;19.20;67.76
56719;BME280;42597;40.636;0.278;2023-04-27T03:08:15;97256.16;;;19.73;67.89
56719;BME280;42597;40.636;0.278;2023-04-27T03:10:40;97261.19;;;20.27;65.10
56719;BME280;42597;40.636;0.278;2023-04-27T03:13:06;97255.59;;;20.38;64.37
56719;BME280;42597;40.636;0.278;2023-04-27T03:15:32;97245.81;;;20.37;63.89
56719;BME280;42597;40.636;0.278;2023-04-27T03:17:57;97252.13;;;19.89;64.71
56719;BME280;42597;40.636;0.278;2023-04-27T03:20:23;97254.28;;;19.63;67.13
56719;BME280;42597;40.636;0.278;2023-04-27T03:22:49;97256.28;;;20.08;65.21
56719;BME280;42597;40.636;0.278;2023-04-27T03:25:15;97253.00;;;19.79;66.38
56719;BME280;42597;40.636;0.278;2023-04-27T03:27:41;97247.88;;;20.26;64.58
56719;BME280;42597;40.636;0.278;2023-04-27T03:30:08;97247.34;;;20.38;63.99
56719;BME280;42597;40.636;0.278;2023-04-27T03:32:34;97247.34;;;20.38;63.70
56719;BME280;42597;40.636;0.278;2023-04-27T03:35:00;97247.00;;;20.36;62.89
56719;BME280;42597;40.636;0.278;2023-04-27T03:37:27;97245.97;;;20.23;64.11
56719;BME280;42597;40.636;0.278;2023-04-27T03:39:52;97250.31;;;19.71;65.72
56719;BME280;42597;40.636;0.278;2023-04-27T03:42:18;97256.84;;;20.30;63.93
56719;BME280;42597;40.636;0.278;2023-04-27T03:44:44;97252.25;;;20.19;63.11
56719;BME280;42597;40.636;0.278;2023-04-27T03:47:09;97255.09;;;19.53;64.93
56719;BME280;42597;40.636;0.278;2023-04-27T03:49:35;97260.91;;;16.99;74.19
56719;BME280;42597;40.636;0.278;2023-04-27T03:52:01;97260.63;;;17.33;75.64
56719;BME280;42597;40.636;0.278;2023-04-27T03:54:29;97244.66;;;17.60;73.92
56719;BME280;42597;40.636;0.278;2023-04-27T03:56:55;97255.53;;;17.24;75.35
56719;BME280;42597;40.636;0.278;2023-04-27T03:59:21;97259.41;;;17.09;76.18
56719;BME280;42597;40.636;0.278;2023-04-27T04:01:46;97254.81;;;17.56;74.38
56719;BME280;42597;40.636;0.278;2023-04-27T04:04:12;97253.31;;;17.98;72.72
56719;BME280;42597;40.636;0.278;2023-04-27T04:06:38;97261.09;;;17.92;72.09
56719;BME280;42597;40.636;0.278;2023-04-27T04:09:03;97256.34;;;18.39;71.10
56719;BME280;42597;40.636;0.278;2023-04-27T04:11:29;97248.06;;;18.64;70.17
56719;BME280;42597;40.636;0.278;2023-04-27T04:13:55;97240.50;;;19.08;69.44
56719;BME280;42597;40.636;0.278;2023-04-27T04:16:21;97238.31;;;18.63;69.62
56719;BME280;42597;40.636;0.278;2023-04-27T04:18:46;97250.13;;;17.67;73.77
56719;BME280;42597;40.636;0.278;2023-04-27T04:21:13;97247.69;;;17.05;76.69
56719;BME280;42597;40.636;0.278;2023-04-27T04:23:38;97248.56;;;17.41;75.07
56719;BME280;42597;40.636;0.278;2023-04-27T04:26:07;97241.19;;;17.85;73.83
56719;BME280;42597;40.636;0.278;2023-04-27T04:28:33;97239.16;;;17.32;75.59
56719;BME280;42597;40.636;0.278;2023-04-27T04:31:01;97242.22;;;17.05;76.43
56719;BME280;42597;40.636;0.278;2023-04-27T04:33:27;97247.81;;;17.84;75.13
56719;BME280;42597;40.636;0.278;2023-04-27T04:35:53;97238.31;;;18.60;72.08
56719;BME280;42597;40.636;0.278;2023-04-27T04:38:19;97242.25;;;18.52;70.03
56719;BME280;42597;40.636;0.278;2023-04-27T04:40:45;97245.38;;;17.28;74.96
56719;BME280;42597;40.636;0.278;2023-04-27T04:43:11;97245.38;;;17.28;75.35
56719;BME280;42597;40.636;0.278;2023-04-27T04:45:37;97241.38;;;16.87;77.65
56719;BME280;42597;40.636;0.278;2023-04-27T04:48:03;97245.88;;;17.98;75.11
56719;BME280;42597;40.636;0.278;2023-04-27T04:50:29;97240.00;;;19.31;68.86
56719;BME280;42597;40.636;0.278;2023-04-27T04:52:54;97252.28;;;19.71;66.11
56719;BME280;42597;40.636;0.278;2023-04-27T04:55:20;97258.97;;;19.66;66.03
56719;BME280;42597;40.636;0.278;2023-04-27T04:57:46;97263.25;;;19.67;65.73
56719;BME280;42597;40.636;0.278;2023-04-27T05:00:13;97263.59;;;19.77;65.22
56719;BME280;42597;40.636;0.278;2023-04-27T05:02:39;97270.72;;;19.63;65.57
56719;BME280;42597;40.636;0.278;2023-04-27T05:05:05;97269.88;;;19.00;66.32
56719;BME280;42597;40.636;0.278;2023-04-27T05:07:32;97273.56;;;17.68;72.23
56719;BME280;42597;40.636;0.278;2023-04-27T05:09:59;97269.28;;;17.89;72.83
56719;BME280;42597;40.636;0.278;2023-04-27T05:12:25;97269.50;;;18.98;69.42
56719;BME280;42597;40.636;0.278;2023-04-27T05:14:51;97270.47;;;19.40;67.01
56719;BME280;42597;40.636;0.278;2023-04-27T05:17:17;97267.22;;;18.86;67.81
56719;BME280;42597;40.636;0.278;2023-04-27T05:19:43;97274.19;;;17.01;75.58
56719;BME280;42597;40.636;0.278;2023-04-27T05:22:09;97270.06;;;16.59;79.47
56719;BME280;42597;40.636;0.278;2023-04-27T05:24:35;97262.25;;;17.73;76.40
56719;BME280;42597;40.636;0.278;2023-04-27T05:27:00;97268.00;;;18.86;70.68
56719;BME280;42597;40.636;0.278;2023-04-27T05:29:26;97261.94;;;19.23;68.25
56719;BME280;42597;40.636;0.278;2023-04-27T05:31:52;97264.09;;;18.80;70.13
56719;BME280;42597;40.636;0.278;2023-04-27T05:34:18;97275.06;;;18.66;70.89
56719;BME280;42597;40.636;0.278;2023-04-27T05:36:44;97265.00;;;19.33;67.71
56719;BME280;42597;40.636;0.278;2023-04-27T05:39:11;97255.84;;;19.57;66.50
56719;BME280;42597;40.636;0.278;2023-04-27T05:41:38;97267.22;;;19.59;65.88
56719;BME280;42597;40.636;0.278;2023-04-27T05:44:04;97268.06;;;18.47;70.86
56719;BME280;42597;40.636;0.278;2023-04-27T05:46:31;97275.59;;;19.31;67.80
56719;BME280;42597;40.636;0.278;2023-04-27T05:48:57;97268.41;;;19.58;66.06
56719;BME280;42597;40.636;0.278;2023-04-27T05:51:23;97268.44;;;19.51;66.30
56719;BME280;42597;40.636;0.278;2023-04-27T05:53:49;97276.81;;;19.85;64.82
56719;BME280;42597;40.636;0.278;2023-04-27T05:56:14;97271.31;;;19.89;64.38
56719;BME280;42597;40.636;0.278;2023-04-27T05:58:40;97262.72;;;19.87;64.28
56719;BME280;42597;40.636;0.278;2023-04-27T06:01:06;97269.66;;;20.02;63.51
56719;BME280;42597;40.636;0.278;2023-04-27T06:03:32;97271.56;;;20.05;63.27
56719;BME280;42597;40.636;0.278;2023-04-27T06:05:59;97275.94;;;19.99;63.64
56719;BME280;42597;40.636;0.278;2023-04-27T06:08:26;97280.81;;;19.77;64.40
56719;BME280;42597;40.636;0.278;2023-04-27T06:10:52;97277.22;;;19.87;64.25
56719;BME280;42597;40.636;0.278;2023-04-27T06:13:18;97283.78;;;19.97;63.94
56719;BME280;42597;40.636;0.278;2023-04-27T06:15:45;97281.50;;;19.88;64.27
56719;BME280;42597;40.636;0.278;2023-04-27T06:18:11;97283.00;;;20.00;63.68
56719;BME280;42597;40.636;0.278;2023-04-27T06:20:37;97285.41;;;19.94;63.91
56719;BME280;42597;40.636;0.278;2023-04-27T06:23:03;97288.53;;;19.93;64.29
56719;BME280;42597;40.636;0.278;2023-04-27T06:25:29;97288.56;;;19.86;64.67
56719;BME280;42597;40.636;0.278;2023-04-27T06:27:56;97293.16;;;20.03;63.92
56719;BME280;42597;40.636;0.278;2023-04-27T06:30:22;97290.41;;;20.03;64.19
56719;BME280;42597;40.636;0.278;2023-04-27T06:32:48;97297.00;;;20.09;64.36
56719;BME280;42597;40.636;0.278;2023-04-27T06:35:15;97292.25;;;20.17;64.06
56719;BME280;42597;40.636;0.278;2023-04-27T06:37:41;97287.44;;;20.28;63.98
56719;BME280;42597;40.636;0.278;2023-04-27T06:40:07;97291.25;;;20.38;63.62
56719;BME280;42597;40.636;0.278;2023-04-27T06:42:33;97285.13;;;20.27;64.28
56719;BME280;42597;40.636;0.278;2023-04-27T06:44:59;97289.25;;;20.42;64.34
56719;BME280;42597;40.636;0.278;2023-04-27T06:47:25;97292.34;;;20.06;65.32
56719;BME280;42597;40.636;0.278;2023-04-27T06:49:51;97291.50;;;20.13;65.91
56719;BME280;42597;40.636;0.278;2023-04-27T06:52:17;97292.97;;;20.25;65.28
56719;BME280;42597;40.636;0.278;2023-04-27T06:54:43;97284.72;;;20.25;65.98
56719;BME280;42597;40.636;0.278;2023-04-27T06:57:08;97298.34;;;19.94;67.29
56719;BME280;42597;40.636;0.278;2023-04-27T06:59:35;97292.16;;;20.28;66.21
56719;BME280;42597;40.636;0.278;2023-04-27T07:02:00;97298.41;;;20.32;66.49
56719;BME280;42597;40.636;0.278;2023-04-27T07:04:26;97282.69;;;20.36;66.36
56719;BME280;42597;40.636;0.278;2023-04-27T07:06:52;97279.84;;;20.46;65.68
56719;BME280;42597;40.636;0.278;2023-04-27T07:09:18;97283.41;;;20.40;66.07
56719;BME280;42597;40.636;0.278;2023-04-27T07:11:43;97283.53;;;20.26;66.44
56719;BME280;42597;40.636;0.278;2023-04-27T07:14:09;97297.13;;;20.40;66.48
56719;BME280;42597;40.636;0.278;2023-04-27T07:16:35;97290.91;;;20.36;66.76
56719;BME280;42597;40.636;0.278;2023-04-27T07:19:01;97295.34;;;20.23;67.13
56719;BME280;42597;40.636;0.278;2023-04-27T07:21:26;97300.84;;;20.23;67.41
56719;BME280;42597;40.636;0.278;2023-04-27T07:23:53;97307.09;;;20.23;67.34
56719;BME280;42597;40.636;0.278;2023-04-27T07:26:19;97296.69;;;20.45;66.49
56719;BME280;42597;40.636;0.278;2023-04-27T07:28:48;97313.56;;;20.47;66.58
56719;BME280;42597;40.636;0.278;2023-04-27T07:31:14;97306.09;;;20.48;66.52
56719;BME280;42597;40.636;0.278;2023-04-27T07:33:40;97303.47;;;19.85;70.36
56719;BME280;42597;40.636;0.278;2023-04-27T07:36:06;97311.13;;;20.11;69.33
56719;BME280;42597;40.636;0.278;2023-04-27T07:38:32;97313.31;;;20.31;68.04
56719;BME280;42597;40.636;0.278;2023-04-27T07:40:59;97304.56;;;20.43;67.20
56719;BME280;42597;40.636;0.278;2023-04-27T07:43:32;97327.97;;;19.47;75.13
56719;BME280;42597;40.636;0.278;2023-04-27T07:45:58;97316.66;;;19.38;75.10
56719;BME280;42597;40.636;0.278;2023-04-27T07:48:24;97325.75;;;19.13;77.58
56719;BME280;42597;40.636;0.278;2023-04-27T07:50:50;97321.59;;;19.71;72.77
56719;BME280;42597;40.636;0.278;2023-04-27T07:53:16;97321.91;;;19.81;73.63
56719;BME280;42597;40.636;0.278;2023-04-27T07:55:42;97333.19;;;19.13;80.59
56719;BME280;42597;40.636;0.278;2023-04-27T07:58:11;97326.28;;;18.72;83.74
56719;BME280;42597;40.636;0.278;2023-04-27T08:00:37;97336.06;;;18.52;86.26
56719;BME280;42597;40.636;0.278;2023-04-27T08:03:03;97331.41;;;18.31;88.13
56719;BME280;42597;40.636;0.278;2023-04-27T08:05:29;97329.81;;;18.48;87.64
56719;BME280;42597;40.636;0.278;2023-04-27T08:07:55;97326.56;;;19.14;83.60
56719;BME280;42597;40.636;0.278;2023-04-27T08:10:21;97333.69;;;18.83;85.84
56719;BME280;42597;40.636;0.278;2023-04-27T08:12:47;97324.31;;;18.84;85.97
56719;BME280;42597;40.636;0.278;2023-04-27T08:15:13;97324.31;;;18.84;87.28
56719;BME280;42597;40.636;0.278;2023-04-27T08:17:39;97324.19;;;19.19;82.97
56719;BME280;42597;40.636;0.278;2023-04-27T08:20:06;97329.53;;;19.48;82.57
56719;BME280;42597;40.636;0.278;2023-04-27T08:22:36;97317.84;;;19.33;84.27
56719;BME280;42597;40.636;0.278;2023-04-27T08:25:02;97313.97;;;19.31;82.81
56719;BME280;42597;40.636;0.278;2023-04-27T08:27:29;97316.41;;;19.07;83.09
56719;BME280;42597;40.636;0.278;2023-04-27T08:29:55;97326.50;;;19.21;82.42
56719;BME280;42597;40.636;0.278;2023-04-27T08:32:21;97324.16;;;19.30;82.99
56719;BME280;42597;40.636;0.278;2023-04-27T08:34:47;97326.34;;;19.53;81.32
56719;BME280;42597;40.636;0.278;2023-04-27T08:37:12;97323.19;;;19.65;81.06
56719;BME280;42597;40.636;0.278;2023-04-27T08:39:38;97325.13;;;19.68;79.94
56719;BME280;42597;40.636;0.278;2023-04-27T08:42:12;97324.81;;;19.52;80.18
56719;BME280;42597;40.636;0.278;2023-04-27T08:44:42;97318.53;;;19.62;80.68
56719;BME280;42597;40.636;0.278;2023-04-27T08:47:09;97308.94;;;19.85;78.77
56719;BME280;42597;40.636;0.278;2023-04-27T08:49:36;97317.66;;;20.25;76.00
56719;BME280;42597;40.636;0.278;2023-04-27T08:52:16;97316.72;;;20.42;74.18
56719;BME280;42597;40.636;0.278;2023-04-27T08:54:42;97315.84;;;20.90;69.04
56719;BME280;42597;40.636;0.278;2023-04-27T08:57:12;97313.50;;;20.92;69.20
56719;BME280;42597;40.636;0.278;2023-04-27T08:59:39;97315.03;;;20.93;69.08
56719;BME280;42597;40.636;0.278;2023-04-27T09:02:05;97309.44;;;20.25;77.17
56719;BME280;42597;40.636;0.278;2023-04-27T09:04:38;97312.84;;;19.91;76.74
56719;BME280;42597;40.636;0.278;2023-04-27T09:07:15;97318.16;;;20.12;76.60
56719;BME280;42597;40.636;0.278;2023-04-27T09:09:41;97310.31;;;20.14;76.66
56719;BME280;42597;40.636;0.278;2023-04-27T09:12:16;97309.59;;;20.07;77.17
56719;BME280;42597;40.636;0.278;2023-04-27T09:15:02;97314.72;;;20.46;74.52
56719;BME280;42597;40.636;0.278;2023-04-27T09:17:30;97316.66;;;20.90;70.49
56719;BME280;42597;40.636;0.278;2023-04-27T09:20:22;97314.44;;;21.12;68.53
56719;BME280;42597;40.636;0.278;2023-04-27T09:22:52;97315.03;;;21.27;67.51
56719;BME280;42597;40.636;0.278;2023-04-27T09:27:52;97314.38;;;20.82;73.29
56719;BME280;42597;40.636;0.278;2023-04-27T09:30:18;97313.03;;;20.63;73.97
56719;BME280;42597;40.636;0.278;2023-04-27T09:32:51;97326.59;;;20.36;75.12
56719;BME280;42597;40.636;0.278;2023-04-27T09:35:31;97320.72;;;20.79;73.30
56719;BME280;42597;40.636;0.278;2023-04-27T09:37:57;97315.44;;;20.95;74.30
56719;BME280;42597;40.636;0.278;2023-04-27T09:40:26;97319.94;;;21.12;72.12
56719;BME280;42597;40.636;0.278;2023-04-27T09:42:56;97321.47;;;21.13;72.43
56719;BME280;42597;40.636;0.278;2023-04-27T09:45:23;97313.16;;;21.20;70.71
56719;BME280;42597;40.636;0.278;2023-04-27T09:47:48;97327.53;;;21.32;71.05
56719;BME280;42597;40.636;0.278;2023-04-27T09:50:14;97332.53;;;21.44;69.12
56719;BME280;42597;40.636;0.278;2023-04-27T09:52:41;97334.75;;;20.43;73.81
56719;BME280;42597;40.636;0.278;2023-04-27T09:55:10;97319.66;;;20.65;73.97
56719;BME280;42597;40.636;0.278;2023-04-27T09:57:47;97321.94;;;21.08;73.18
56719;BME280;42597;40.636;0.278;2023-04-27T10:07:57;97326.34;;;21.36;70.72
56719;BME280;42597;40.636;0.278;2023-04-27T10:10:23;97320.88;;;21.29;69.93
56719;BME280;42597;40.636;0.278;2023-04-27T10:12:56;97324.78;;;21.32;71.54
56719;BME280;42597;40.636;0.278;2023-04-27T10:15:27;97327.16;;;21.30;71.02
56719;BME280;42597;40.636;0.278;2023-04-27T10:17:53;97324.69;;;21.69;68.74
56719;BME280;42597;40.636;0.278;2023-04-27T10:20:35;97333.22;;;21.52;67.89
56719;BME280;42597;40.636;0.278;2023-04-27T10:23:01;97332.44;;;21.78;67.22
56719;BME280;42597;40.636;0.278;2023-04-27T10:25:40;97330.09;;;21.77;68.76
56719;BME280;42597;40.636;0.278;2023-04-27T10:28:06;97324.75;;;21.93;64.61
56719;BME280;42597;40.636;0.278;2023-04-27T10:30:35;97321.41;;;22.05;64.75
56719;BME280;42597;40.636;0.278;2023-04-27T10:33:05;97323.31;;;21.85;68.29
56719;BME280;42597;40.636;0.278;2023-04-27T10:35:37;97316.16;;;21.91;64.93
56719;BME280;42597;40.636;0.278;2023-04-27T10:38:14;97311.28;;;21.99;66.02
56719;BME280;42597;40.636;0.278;2023-04-27T10:41:04;97319.97;;;21.97;68.01
56719;BME280;42597;40.636;0.278;2023-04-27T10:43:34;97316.56;;;22.16;65.78
56719;BME280;42597;40.636;0.278;2023-04-27T10:46:10;97322.06;;;22.16;65.07
56719;BME280;42597;40.636;0.278;2023-04-27T10:48:38;97317.31;;;22.17;68.11
56719;BME280;42597;40.636;0.278;2023-04-27T10:51:05;97316.97;;;22.38;68.32
56719;BME280;42597;40.636;0.278;2023-04-27T10:53:37;97309.13;;;22.37;68.40
56719;BME280;42597;40.636;0.278;2023-04-27T10:56:03;97311.16;;;22.33;64.65
56719;BME280;42597;40.636;0.278;2023-04-27T10:58:33;97303.41;;;22.01;69.35
56719;BME280;42597;40.636;0.278;2023-04-27T11:00:59;97304.00;;;21.61;68.62
56719;BME280;42597;40.636;0.278;2023-04-27T11:03:25;97294.97;;;21.88;68.87
56719;BME280;42597;40.636;0.278;2023-04-27T11:06:02;97289.81;;;22.17;68.58
56719;BME280;42597;40.636;0.278;2023-04-27T11:08:28;97294.03;;;22.45;66.45
56719;BME280;42597;40.636;0.278;2023-04-27T11:11:00;97291.41;;;22.14;68.84
56719;BME280;42597;40.636;0.278;2023-04-27T11:13:26;97294.06;;;21.94;69.02
56719;BME280;42597;40.636;0.278;2023-04-27T11:15:54;97292.16;;;21.64;71.08
56719;BME280;42597;40.636;0.278;2023-04-27T11:18:29;97293.34;;;21.90;70.93
56719;BME280;42597;40.636;0.278;2023-04-27T11:21:09;97280.63;;;22.47;65.83
56719;BME280;42597;40.636;0.278;2023-04-27T11:23:36;97270.69;;;22.53;67.72
56719;BME280;42597;40.636;0.278;2023-04-27T11:28:40;97281.34;;;22.04;70.18
56719;BME280;42597;40.636;0.278;2023-04-27T11:31:06;97268.75;;;22.50;68.20
56719;BME280;42597;40.636;0.278;2023-04-27T11:33:32;97266.00;;;22.50;65.04
56719;BME280;42597;40.636;0.278;2023-04-27T11:35:59;97254.66;;;22.48;64.29
56719;BME280;42597;40.636;0.278;2023-04-27T11:38:25;97255.25;;;22.59;67.85
56719;BME280;42597;40.636;0.278;2023-04-27T11:41:05;97257.84;;;22.66;68.44
56719;BME280;42597;40.636;0.278;2023-04-27T11:43:32;97247.31;;;22.61;67.60
56719;BME280;42597;40.636;0.278;2023-04-27T11:46:01;97252.91;;;22.58;68.35
56719;BME280;42597;40.636;0.278;2023-04-27T11:48:28;97249.88;;;22.72;64.93
56719;BME280;42597;40.636;0.278;2023-04-27T11:50:56;97244.13;;;22.63;69.06
56719;BME280;42597;40.636;0.278;2023-04-27T11:53:34;97244.00;;;22.27;69.41
56719;BME280;42597;40.636;0.278;2023-04-27T11:56:02;97238.78;;;22.56;68.94
56719;BME280;42597;40.636;0.278;2023-04-27T11:58:33;97246.03;;;22.46;68.32
56719;BME280;42597;40.636;0.278;2023-04-27T12:00:59;97247.66;;;22.83;65.96
56719;BME280;42597;40.636;0.278;2023-04-27T12:03:27;97239.19;;;22.74;66.54
56719;BME280;42597;40.636;0.278;2023-04-27T12:05:53;97233.97;;;22.80;68.25
56719;BME280;42597;40.636;0.278;2023-04-27T12:08:19;97242.53;;;22.65;69.33
56719;BME280;42597;40.636;0.278;2023-04-27T12:10:45;97231.88;;;22.87;67.58
56719;BME280;42597;40.636;0.278;2023-04-27T12:13:12;97229.34;;;22.97;67.82
56719;BME280;42597;40.636;0.278;2023-04-27T12:15:39;97227.19;;;22.84;68.34
56719;BME280;42597;40.636;0.278;2023-04-27T12:18:05;97224.72;;;22.90;65.78
56719;BME280;42597;40.636;0.278;2023-04-27T12:20:32;97227.91;;;22.88;64.91
56719;BME280;42597;40.636;0.278;2023-04-27T12:22:58;97228.53;;;23.16;67.38
56719;BME280;42597;40.636;0.278;2023-04-27T12:25:24;97232.06;;;23.17;66.49
56719;BME280;42597;40.636;0.278;2023-04-27T12:27:49;97235.00;;;23.26;65.62
56719;BME280;42597;40.636;0.278;2023-04-27T12:30:16;97228.47;;;23.20;66.22
56719;BME280;42597;40.636;0.278;2023-04-27T12:32:42;97225.34;;;23.18;66.96
56719;BME280;42597;40.636;0.278;2023-04-27T12:35:09;97226.56;;;23.17;67.09
56719;BME280;42597;40.636;0.278;2023-04-27T12:37:37;97217.06;;;23.18;65.73
56719;BME280;42597;40.636;0.278;2023-04-27T12:40:04;97216.06;;;23.28;66.63
56719;BME280;42597;40.636;0.278;2023-04-27T12:42:31;97215.88;;;23.35;65.66
56719;BME280;42597;40.636;0.278;2023-04-27T12:44:56;97216.41;;;23.46;65.67
56719;BME280;42597;40.636;0.278;2023-04-27T12:47:22;97221.00;;;23.00;68.09
56719;BME280;42597;40.636;0.278;2023-04-27T12:49:48;97234.00;;;23.36;64.03
56719;BME280;42597;40.636;0.278;2023-04-27T12:52:15;97237.72;;;23.09;66.86
56719;BME280;42597;40.636;0.278;2023-04-27T12:54:41;97231.13;;;23.23;67.76
56719;BME280;42597;40.636;0.278;2023-04-27T12:57:07;97228.78;;;23.22;67.11
56719;BME280;42597;40.636;0.278;2023-04-27T12:59:33;97235.56;;;23.37;67.56
56719;BME280;42597;40.636;0.278;2023-04-27T13:02:00;97238.69;;;23.19;66.97
56719;BME280;42597;40.636;0.278;2023-04-27T13:04:28;97231.13;;;23.23;66.94
56719;BME280;42597;40.636;0.278;2023-04-27T13:06:54;97221.88;;;23.13;68.00
56719;BME280;42597;40.636;0.278;2023-04-27T13:09:20;97211.19;;;23.15;67.35
56719;BME280;42597;40.636;0.278;2023-04-27T13:11:46;97209.44;;;23.42;68.73